createdAt,value
2022-08-18T00:09:06.426Z,21.10
2022-08-18T00:19:10.272Z,21.00
2022-08-18T00:29:15.334Z,20.40
2022-08-18T00:39:19.017Z,20.30
2022-08-18T00:49:24.103Z,20.20
2022-08-18T00:59:32.579Z,20.30
2022-08-18T01:09:38.102Z,20.10
2022-08-18T01:19:59.618Z,20.20
2022-08-18T01:30:10.428Z,20.20
2022-08-18T01:41:21.186Z,20.00
2022-08-18T01:50:44.432Z,20.10
2022-08-18T02:00:48.159Z,20.50
2022-08-18T02:10:53.284Z,20.50
2022-08-18T02:20:57.284Z,20.60
2022-08-18T02:31:07.359Z,20.70
2022-08-18T02:41:16.022Z,20.50
2022-08-18T02:51:21.491Z,20.70
2022-08-18T03:01:31.904Z,20.60
2022-08-18T03:11:37.877Z,20.60
2022-08-18T03:21:41.588Z,20.50
2022-08-18T03:31:50.935Z,20.40
2022-08-18T03:41:58.313Z,20.50
2022-08-18T03:52:09.445Z,20.30
2022-08-18T04:02:13.536Z,20.40
2022-08-18T04:12:18.751Z,20.50
2022-08-18T04:22:23.013Z,20.50
2022-08-18T04:32:29.916Z,20.40
2022-08-18T04:42:34.070Z,20.20
2022-08-18T04:53:02.593Z,20.20
2022-08-18T05:03:06.313Z,20.50
2022-08-18T05:13:11.385Z,20.40
2022-08-18T05:23:16.851Z,20.40
2022-08-18T05:33:22.158Z,20.60
2022-08-18T05:43:26.251Z,20.70
2022-08-18T05:53:45.645Z,20.80
2022-08-18T06:03:54.209Z,21.00
2022-08-18T06:14:01.620Z,21.00
2022-08-18T06:24:19.096Z,20.90
2022-08-18T06:34:42.971Z,20.90
2022-08-18T06:44:50.762Z,21.00
2022-08-18T06:54:57.657Z,21.10
2022-08-18T07:05:05.651Z,21.40
2022-08-18T07:15:14.655Z,21.40
2022-08-18T07:25:24.643Z,21.50
2022-08-18T07:35:39.449Z,21.80
2022-08-18T07:45:45.804Z,21.90
2022-08-18T07:55:57.527Z,22.00
2022-08-18T08:06:08.659Z,22.20
2022-08-18T08:16:20.750Z,22.60
2022-08-18T08:26:38.140Z,22.70
2022-08-18T08:36:46.639Z,23.20
2022-08-18T08:46:56.745Z,23.20
2022-08-18T08:57:04.056Z,23.20
2022-08-18T09:07:22.494Z,23.20
2022-08-18T09:17:59.728Z,23.20
2022-08-18T09:28:12.940Z,23.50
2022-08-18T09:38:40.553Z,23.90
2022-08-18T09:48:46.601Z,24.70
2022-08-18T09:58:59.002Z,25.50
2022-08-18T10:09:17.905Z,25.80
2022-08-18T10:19:40.263Z,25.90
2022-08-18T10:30:02.105Z,25.90
2022-08-18T10:40:21.590Z,26.70
2022-08-18T10:50:29.636Z,27.10
2022-08-18T11:00:48.048Z,27.00
2022-08-18T11:11:32.693Z,27.60
2022-08-18T11:21:33.741Z,28.40
2022-08-18T11:31:41.519Z,29.60
2022-08-18T11:41:50.290Z,30.30
2022-08-18T11:52:02.231Z,30.20
2022-08-18T12:02:11.286Z,30.30
2022-08-18T12:12:22.661Z,30.70
2022-08-18T12:22:31.703Z,31.40
2022-08-18T12:32:46.878Z,31.20
2022-08-18T12:42:56.118Z,31.50
2022-08-18T12:53:00.220Z,31.70
2022-08-18T13:03:05.857Z,32.30
2022-08-18T13:13:09.514Z,32.70
2022-08-18T13:23:14.729Z,32.20
2022-08-18T13:33:34.729Z,33.00
2022-08-18T13:43:48.123Z,32.10
2022-08-18T13:54:14.533Z,30.80
2022-08-18T14:04:20.442Z,31.40
2022-08-18T14:14:24.630Z,31.50
2022-08-18T14:24:49.009Z,31.70
2022-08-18T14:34:55.789Z,30.70
2022-08-18T14:45:26.616Z,27.60
2022-08-18T14:55:36.038Z,27.10
2022-08-18T15:05:42.389Z,26.40
2022-08-18T15:15:51.812Z,25.90
2022-08-18T15:25:58.912Z,25.50
2022-08-18T15:36:05.089Z,24.20
2022-08-18T15:46:16.951Z,23.20
2022-08-18T15:56:22.721Z,21.70
2022-08-18T16:06:32.468Z,21.10
2022-08-18T16:16:36.685Z,20.70
2022-08-18T16:26:41.864Z,20.80
2022-08-18T16:36:45.702Z,20.80
2022-08-18T16:46:51.990Z,20.20
2022-08-18T16:56:55.822Z,20.10
2022-08-18T17:07:01.850Z,20.60
2022-08-18T17:17:07.803Z,20.70
2022-08-18T17:27:26.535Z,20.80
2022-08-18T17:37:32.368Z,21.10
2022-08-18T17:47:43.984Z,21.60
2022-08-18T17:57:56.559Z,22.20
2022-08-18T18:08:04.569Z,22.60
2022-08-18T18:18:31.348Z,21.70
2022-08-18T18:28:38.331Z,21.90
2022-08-18T18:38:49.125Z,21.70
2022-08-18T18:49:03.572Z,21.60
2022-08-18T18:59:20.796Z,20.90
2022-08-18T19:09:32.321Z,20.60
2022-08-18T19:19:42.749Z,20.60
2022-08-18T19:29:48.864Z,20.50
2022-08-18T19:40:03.859Z,20.30
2022-08-18T19:50:17.015Z,20.20
2022-08-18T20:00:28.424Z,19.90
2022-08-18T20:11:04.850Z,19.90
2022-08-18T20:21:53.206Z,19.90
2022-08-18T20:32:02.069Z,20.00
2022-08-18T20:42:09.711Z,20.00
2022-08-18T20:52:30.143Z,20.00
2022-08-18T21:02:40.974Z,20.30
2022-08-18T21:12:53.772Z,20.20
2022-08-18T21:23:08.874Z,20.50
2022-08-18T21:33:21.955Z,20.30
2022-08-18T21:43:43.623Z,20.30
2022-08-18T21:53:53.895Z,20.80
2022-08-18T22:04:00.698Z,21.10
2022-08-18T22:14:18.853Z,20.90
2022-08-18T22:24:30.454Z,20.50
2022-08-18T22:34:36.217Z,20.50
2022-08-18T22:44:41.887Z,20.20
2022-08-18T22:54:45.686Z,20.00
2022-08-18T23:04:50.768Z,20.00
2022-08-18T23:14:55.321Z,19.80
2022-08-18T23:25:00.518Z,19.80
2022-08-18T23:35:12.950Z,20.10
2022-08-18T23:45:18.372Z,20.20
2022-08-18T23:55:22.082Z,20.30
